EZY429 EGPF-EGBB
Flight info
| Callsign | EZY429 |
|---|---|
| Flight time | 0h 49m |
| Altitude | 25000 |
| Route | NORBO T256 RIPNO/N0437F270 DCT AKOMU DCT VAMEB UL612 CROFT |
| Aircraft | A320/M-SDE3FGHIRWY/LB1 |
Departure
| Time | 2026-05-05 15:54 |
|---|---|
| Airport | Glasgow Airport (EGPF) |
Arrival
| Time | 2026-05-05 16:43 |
|---|---|
| Airport | Birmingham Airport (EGBB) |
| Time | Latitude | Longitude | Altitude | Speed | Heading |
|---|---|---|---|---|---|
| 2026-05-05 15:21 | 55.86623 | -4.43117 | 29 ft | 0 kts | 74° |
| 2026-05-05 15:46 | 55.86621 | -4.43129 | 29 ft | 2 kts | 69° |
| 2026-05-05 15:46 | 55.86615 | -4.43156 | 29 ft | 2 kts | 59° |
| 2026-05-05 15:46 | 55.86606 | -4.43180 | 29 ft | 2 kts | 39° |
| 2026-05-05 15:47 | 55.86592 | -4.43194 | 29 ft | 2 kts | 359° |
| 2026-05-05 15:47 | 55.86581 | -4.43193 | 29 ft | 1 kts | 346° |
| 2026-05-05 15:47 | 55.86578 | -4.43191 | 29 ft | 0 kts | 345° |
| 2026-05-05 15:49 | 55.86618 | -4.43209 | 29 ft | 10 kts | 346° |
| 2026-05-05 15:49 | 55.86698 | -4.43252 | 29 ft | 12 kts | 343° |
| 2026-05-05 15:50 | 55.86774 | -4.43293 | 29 ft | 11 kts | 340° |
| 2026-05-05 15:50 | 55.86790 | -4.43395 | 29 ft | 8 kts | 257° |
| 2026-05-05 15:50 | 55.86775 | -4.43491 | 29 ft | 8 kts | 254° |
| 2026-05-05 15:50 | 55.86761 | -4.43577 | 29 ft | 8 kts | 254° |
| 2026-05-05 15:51 | 55.86737 | -4.43723 | 29 ft | 17 kts | 252° |
| 2026-05-05 15:51 | 55.86648 | -4.43910 | 29 ft | 21 kts | 226° |
| 2026-05-05 15:51 | 55.86553 | -4.44093 | 29 ft | 19 kts | 227° |
| 2026-05-05 15:51 | 55.86466 | -4.44262 | 29 ft | 18 kts | 227° |
| 2026-05-05 15:52 | 55.86385 | -4.44411 | 29 ft | 16 kts | 226° |
| 2026-05-05 15:52 | 55.86311 | -4.44546 | 29 ft | 15 kts | 226° |
| 2026-05-05 15:52 | 55.86253 | -4.44677 | 29 ft | 12 kts | 262° |
| 2026-05-05 15:52 | 55.86297 | -4.44793 | 29 ft | 11 kts | 322° |
| 2026-05-05 15:53 | 55.86353 | -4.44861 | 29 ft | 9 kts | 350° |
| 2026-05-05 15:53 | 55.86392 | -4.44830 | 29 ft | 0 kts | 45° |
| 2026-05-05 15:53 | 55.86402 | -4.44811 | 29 ft | 7 kts | 45° |
| 2026-05-05 15:53 | 55.86599 | -4.44440 | 29 ft | 76 kts | 46° |
| 2026-05-05 15:54 | 55.87109 | -4.43489 | 29 ft | 133 kts | 46° |
| 2026-05-05 15:54 | 55.87825 | -4.42175 | 262 ft | 158 kts | 46° |
| 2026-05-05 15:54 | 55.88616 | -4.40744 | 757 ft | 167 kts | 47° |
| 2026-05-05 15:54 | 55.89474 | -4.39300 | 1390 ft | 172 kts | 48° |
| 2026-05-05 15:55 | 55.90358 | -4.37757 | 1842 ft | 188 kts | 50° |
| 2026-05-05 15:55 | 55.91300 | -4.35935 | 2202 ft | 212 kts | 50° |
| 2026-05-05 15:55 | 55.92349 | -4.33886 | 2657 ft | 234 kts | 50° |
| 2026-05-05 15:55 | 55.93679 | -4.32108 | 3427 ft | 248 kts | 24° |
| 2026-05-05 15:56 | 55.95406 | -4.31718 | 4255 ft | 258 kts | 352° |
| 2026-05-05 15:56 | 55.97058 | -4.32966 | 5145 ft | 263 kts | 322° |
| 2026-05-05 15:56 | 55.98184 | -4.35550 | 5794 ft | 268 kts | 292° |
| 2026-05-05 15:56 | 55.98378 | -4.38832 | 6542 ft | 270 kts | 261° |
| 2026-05-05 15:57 | 55.97719 | -4.41968 | 7492 ft | 271 kts | 245° |
| 2026-05-05 15:57 | 55.96873 | -4.44983 | 8396 ft | 272 kts | 246° |
| 2026-05-05 15:57 | 55.96071 | -4.47981 | 9335 ft | 271 kts | 247° |
| 2026-05-05 15:57 | 55.95122 | -4.50925 | 10154 ft | 278 kts | 235° |
| 2026-05-05 15:58 | 55.93780 | -4.53553 | 10556 ft | 298 kts | 229° |
| 2026-05-05 15:58 | 55.92281 | -4.56318 | 10767 ft | 322 kts | 228° |
| 2026-05-05 15:58 | 55.90650 | -4.59264 | 10996 ft | 342 kts | 228° |
| 2026-05-05 15:58 | 55.88946 | -4.62311 | 11578 ft | 349 kts | 228° |
| 2026-05-05 15:59 | 55.87224 | -4.65387 | 12281 ft | 353 kts | 228° |
| 2026-05-05 15:59 | 55.85330 | -4.68209 | 12984 ft | 360 kts | 217° |
| 2026-05-05 15:59 | 55.83222 | -4.70645 | 13688 ft | 363 kts | 216° |
| 2026-05-05 15:59 | 55.81027 | -4.72924 | 14319 ft | 369 kts | 208° |
| 2026-05-05 16:00 | 55.78586 | -4.74459 | 14905 ft | 377 kts | 197° |
| 2026-05-05 16:00 | 55.75972 | -4.75129 | 15507 ft | 384 kts | 186° |
| 2026-05-05 16:00 | 55.73289 | -4.75287 | 16093 ft | 388 kts | 185° |
| 2026-05-05 16:00 | 55.70577 | -4.75460 | 16685 ft | 391 kts | 185° |
| 2026-05-05 16:01 | 55.67847 | -4.75645 | 17282 ft | 394 kts | 185° |
| 2026-05-05 16:01 | 55.65133 | -4.75832 | 17880 ft | 397 kts | 185° |
| 2026-05-05 16:01 | 55.62354 | -4.75557 | 18446 ft | 404 kts | 174° |
| 2026-05-05 16:01 | 55.59604 | -4.74342 | 18960 ft | 411 kts | 162° |
| 2026-05-05 16:02 | 55.57003 | -4.72174 | 19475 ft | 417 kts | 151° |
| 2026-05-05 16:02 | 55.54639 | -4.69142 | 19996 ft | 422 kts | 142° |
| 2026-05-05 16:02 | 55.52362 | -4.65854 | 20509 ft | 424 kts | 142° |
| 2026-05-05 16:02 | 55.50071 | -4.62561 | 21006 ft | 426 kts | 143° |
| 2026-05-05 16:03 | 55.47761 | -4.59259 | 21486 ft | 429 kts | 143° |
| 2026-05-05 16:03 | 55.45433 | -4.55945 | 21966 ft | 431 kts | 143° |
| 2026-05-05 16:03 | 55.43094 | -4.52620 | 22409 ft | 433 kts | 143° |
| 2026-05-05 16:03 | 55.40740 | -4.49281 | 22868 ft | 435 kts | 143° |
| 2026-05-05 16:04 | 55.38375 | -4.45932 | 23327 ft | 438 kts | 143° |
| 2026-05-05 16:04 | 55.36001 | -4.42569 | 23740 ft | 440 kts | 143° |
| 2026-05-05 16:04 | 55.33613 | -4.39196 | 24107 ft | 441 kts | 143° |
| 2026-05-05 16:04 | 55.31212 | -4.35812 | 24458 ft | 443 kts | 143° |
| 2026-05-05 16:05 | 55.28797 | -4.32406 | 24798 ft | 445 kts | 143° |
| 2026-05-05 16:05 | 55.26380 | -4.28998 | 25002 ft | 447 kts | 143° |
| 2026-05-05 16:05 | 55.23939 | -4.25568 | 25046 ft | 453 kts | 143° |
| 2026-05-05 16:05 | 55.21469 | -4.22105 | 25044 ft | 456 kts | 143° |
| 2026-05-05 16:06 | 55.18989 | -4.18632 | 25030 ft | 457 kts | 142° |
| 2026-05-05 16:06 | 55.16642 | -4.14881 | 25040 ft | 458 kts | 135° |
| 2026-05-05 16:06 | 55.14456 | -4.10833 | 25040 ft | 458 kts | 135° |
| 2026-05-05 16:06 | 55.12295 | -4.06843 | 25040 ft | 458 kts | 135° |
| 2026-05-05 16:07 | 55.10105 | -4.02804 | 25040 ft | 458 kts | 135° |
| 2026-05-05 16:07 | 55.07912 | -3.98772 | 25037 ft | 458 kts | 135° |
| 2026-05-05 16:07 | 55.05718 | -3.94749 | 25037 ft | 458 kts | 135° |
| 2026-05-05 16:07 | 55.03517 | -3.90722 | 25040 ft | 458 kts | 135° |
| 2026-05-05 16:08 | 55.01320 | -3.86707 | 25040 ft | 458 kts | 135° |
| 2026-05-05 16:08 | 54.99122 | -3.82701 | 25037 ft | 458 kts | 135° |
| 2026-05-05 16:08 | 54.96924 | -3.78696 | 25036 ft | 458 kts | 135° |
| 2026-05-05 16:08 | 54.94652 | -3.74793 | 25019 ft | 457 kts | 141° |
| 2026-05-05 16:09 | 54.92119 | -3.71495 | 25020 ft | 454 kts | 150° |
| 2026-05-05 16:09 | 54.89433 | -3.68630 | 25026 ft | 453 kts | 151° |
| 2026-05-05 16:09 | 54.86741 | -3.65774 | 25027 ft | 453 kts | 151° |
| 2026-05-05 16:09 | 54.84052 | -3.62921 | 25028 ft | 453 kts | 151° |
| 2026-05-05 16:10 | 54.81361 | -3.60060 | 25030 ft | 453 kts | 150° |
| 2026-05-05 16:10 | 54.78673 | -3.57204 | 25026 ft | 453 kts | 150° |
| 2026-05-05 16:10 | 54.75982 | -3.54349 | 25027 ft | 453 kts | 151° |
| 2026-05-05 16:10 | 54.73323 | -3.51534 | 25027 ft | 453 kts | 151° |
| 2026-05-05 16:11 | 54.70633 | -3.48692 | 25029 ft | 453 kts | 151° |
| 2026-05-05 16:11 | 54.62545 | -3.40204 | 25022 ft | 453 kts | 152° |
| 2026-05-05 16:12 | 54.59851 | -3.37382 | 25024 ft | 453 kts | 152° |
| 2026-05-05 16:12 | 54.54466 | -3.31742 | 25026 ft | 453 kts | 152° |
| 2026-05-05 16:13 | 54.46371 | -3.23318 | 25020 ft | 453 kts | 152° |
| 2026-05-05 16:13 | 54.43677 | -3.20521 | 25009 ft | 452 kts | 152° |
| 2026-05-05 16:13 | 54.40987 | -3.17732 | 25023 ft | 452 kts | 152° |
| 2026-05-05 16:14 | 54.35644 | -3.12195 | 25031 ft | 451 kts | 152° |
| 2026-05-05 16:14 | 54.30276 | -3.06649 | 25036 ft | 450 kts | 152° |
| 2026-05-05 16:15 | 54.24907 | -3.01119 | 25034 ft | 450 kts | 152° |
| 2026-05-05 16:15 | 54.19538 | -2.95619 | 25014 ft | 450 kts | 152° |
| 2026-05-05 16:16 | 54.13968 | -2.90850 | 25018 ft | 446 kts | 160° |
| 2026-05-05 16:16 | 54.08260 | -2.86700 | 25023 ft | 446 kts | 160° |
| 2026-05-05 16:17 | 54.02583 | -2.82564 | 25023 ft | 446 kts | 160° |
| 2026-05-05 16:17 | 53.99696 | -2.80465 | 25026 ft | 446 kts | 160° |
| 2026-05-05 16:18 | 53.93983 | -2.76339 | 25015 ft | 446 kts | 160° |
| 2026-05-05 16:18 | 53.91125 | -2.74275 | 25021 ft | 447 kts | 160° |
| 2026-05-05 16:18 | 53.85398 | -2.70142 | 25017 ft | 447 kts | 160° |
| 2026-05-05 16:19 | 53.82573 | -2.68109 | 25020 ft | 447 kts | 160° |
| 2026-05-05 16:19 | 53.79711 | -2.66053 | 25021 ft | 447 kts | 160° |
| 2026-05-05 16:19 | 53.73984 | -2.61942 | 25024 ft | 447 kts | 160° |
| 2026-05-05 16:20 | 53.68249 | -2.57853 | 25018 ft | 447 kts | 159° |
| 2026-05-05 16:20 | 53.62546 | -2.53665 | 25026 ft | 448 kts | 154° |
| 2026-05-05 16:21 | 53.57231 | -2.48256 | 25035 ft | 449 kts | 150° |
| 2026-05-05 16:22 | 53.49250 | -2.40052 | 23681 ft | 444 kts | 151° |
| 2026-05-05 16:22 | 53.44012 | -2.34707 | 22157 ft | 437 kts | 151° |
| 2026-05-05 16:23 | 53.38849 | -2.29439 | 20696 ft | 432 kts | 151° |
| 2026-05-05 16:23 | 53.37157 | -2.27711 | 20286 ft | 429 kts | 151° |
| 2026-05-05 16:23 | 53.32067 | -2.22694 | 19441 ft | 421 kts | 153° |
| 2026-05-05 16:24 | 53.29506 | -2.20335 | 19078 ft | 419 kts | 154° |
| 2026-05-05 16:24 | 53.26938 | -2.18023 | 18717 ft | 418 kts | 154° |
| 2026-05-05 16:24 | 53.21842 | -2.13429 | 17944 ft | 414 kts | 153° |
| 2026-05-05 16:25 | 53.19323 | -2.11130 | 17540 ft | 411 kts | 153° |
| 2026-05-05 16:25 | 53.14342 | -2.06551 | 16746 ft | 406 kts | 153° |
| 2026-05-05 16:25 | 53.11901 | -2.04310 | 16375 ft | 404 kts | 153° |
| 2026-05-05 16:26 | 53.07008 | -1.99826 | 15659 ft | 399 kts | 154° |
| 2026-05-05 16:26 | 53.01806 | -1.97027 | 14953 ft | 391 kts | 174° |
| 2026-05-05 16:27 | 52.99109 | -1.96647 | 14605 ft | 389 kts | 177° |
| 2026-05-05 16:27 | 52.96415 | -1.96304 | 14266 ft | 386 kts | 177° |
| 2026-05-05 16:27 | 52.93755 | -1.95954 | 13925 ft | 378 kts | 177° |
| 2026-05-05 16:27 | 52.91178 | -1.95610 | 13565 ft | 366 kts | 177° |
| 2026-05-05 16:28 | 52.88684 | -1.95276 | 13189 ft | 353 kts | 177° |
| 2026-05-05 16:28 | 52.86272 | -1.94956 | 12818 ft | 342 kts | 177° |
| 2026-05-05 16:28 | 52.83937 | -1.94647 | 12452 ft | 331 kts | 177° |
| 2026-05-05 16:28 | 52.81674 | -1.94360 | 12091 ft | 321 kts | 177° |
| 2026-05-05 16:29 | 52.79514 | -1.94088 | 11736 ft | 308 kts | 177° |
| 2026-05-05 16:29 | 52.77423 | -1.93822 | 11417 ft | 294 kts | 177° |
| 2026-05-05 16:29 | 52.75402 | -1.93565 | 11145 ft | 289 kts | 177° |
| 2026-05-05 16:29 | 52.73407 | -1.93303 | 10871 ft | 285 kts | 177° |
| 2026-05-05 16:30 | 52.71459 | -1.93056 | 10599 ft | 277 kts | 177° |
| 2026-05-05 16:30 | 52.69569 | -1.92800 | 10328 ft | 268 kts | 178° |
| 2026-05-05 16:30 | 52.67750 | -1.92561 | 10063 ft | 255 kts | 177° |
| 2026-05-05 16:30 | 52.66006 | -1.92344 | 9787 ft | 248 kts | 177° |
| 2026-05-05 16:31 | 52.64287 | -1.92138 | 9485 ft | 247 kts | 178° |
| 2026-05-05 16:31 | 52.62573 | -1.91916 | 9204 ft | 247 kts | 177° |
| 2026-05-05 16:31 | 52.60888 | -1.91705 | 8939 ft | 245 kts | 177° |
| 2026-05-05 16:31 | 52.59192 | -1.91522 | 8671 ft | 243 kts | 178° |
| 2026-05-05 16:32 | 52.57506 | -1.91341 | 8412 ft | 243 kts | 177° |
| 2026-05-05 16:32 | 52.55826 | -1.91166 | 8153 ft | 242 kts | 177° |
| 2026-05-05 16:32 | 52.54152 | -1.91012 | 7894 ft | 240 kts | 177° |
| 2026-05-05 16:32 | 52.52491 | -1.90876 | 7677 ft | 238 kts | 177° |
| 2026-05-05 16:33 | 52.50848 | -1.90623 | 7468 ft | 237 kts | 172° |
| 2026-05-05 16:33 | 52.49214 | -1.90228 | 7273 ft | 237 kts | 170° |
| 2026-05-05 16:33 | 52.47588 | -1.89830 | 7074 ft | 235 kts | 171° |
| 2026-05-05 16:33 | 52.45974 | -1.89433 | 6870 ft | 234 kts | 171° |
| 2026-05-05 16:34 | 52.44364 | -1.89048 | 6661 ft | 233 kts | 171° |
| 2026-05-05 16:34 | 52.42762 | -1.88673 | 6476 ft | 232 kts | 171° |
| 2026-05-05 16:34 | 52.41186 | -1.88307 | 6274 ft | 231 kts | 171° |
| 2026-05-05 16:34 | 52.39569 | -1.87951 | 6070 ft | 232 kts | 171° |
| 2026-05-05 16:35 | 52.37991 | -1.87613 | 5851 ft | 231 kts | 170° |
| 2026-05-05 16:35 | 52.36434 | -1.87005 | 5641 ft | 230 kts | 162° |
| 2026-05-05 16:35 | 52.34914 | -1.86224 | 5435 ft | 229 kts | 161° |
| 2026-05-05 16:35 | 52.33395 | -1.85426 | 5226 ft | 230 kts | 160° |
| 2026-05-05 16:36 | 52.31889 | -1.84533 | 5073 ft | 228 kts | 149° |
| 2026-05-05 16:36 | 52.30564 | -1.83111 | 5000 ft | 228 kts | 141° |
| 2026-05-05 16:36 | 52.29298 | -1.81548 | 5006 ft | 227 kts | 139° |
| 2026-05-05 16:36 | 52.28260 | -1.79670 | 4945 ft | 220 kts | 124° |
| 2026-05-05 16:37 | 52.27371 | -1.77549 | 4265 ft | 232 kts | 121° |
| 2026-05-05 16:37 | 52.26497 | -1.75303 | 3689 ft | 233 kts | 115° |
| 2026-05-05 16:37 | 52.26057 | -1.72878 | 3415 ft | 218 kts | 89° |
| 2026-05-05 16:37 | 52.26262 | -1.70545 | 3210 ft | 201 kts | 65° |
| 2026-05-05 16:38 | 52.26971 | -1.68696 | 3041 ft | 185 kts | 43° |
| 2026-05-05 16:38 | 52.27968 | -1.67527 | 2835 ft | 173 kts | 23° |
| 2026-05-05 16:38 | 52.29074 | -1.66845 | 2650 ft | 166 kts | 19° |
| 2026-05-05 16:38 | 52.30145 | -1.66197 | 2517 ft | 162 kts | 19° |
| 2026-05-05 16:39 | 52.31198 | -1.65561 | 2373 ft | 162 kts | 19° |
| 2026-05-05 16:39 | 52.32245 | -1.64928 | 2211 ft | 161 kts | 19° |
| 2026-05-05 16:39 | 52.33288 | -1.64295 | 2091 ft | 157 kts | 19° |
| 2026-05-05 16:39 | 52.34334 | -1.63842 | 2026 ft | 156 kts | 4° |
| 2026-05-05 16:40 | 52.35393 | -1.64009 | 2003 ft | 155 kts | 345° |
| 2026-05-05 16:40 | 52.36329 | -1.64855 | 2008 ft | 157 kts | 329° |
| 2026-05-05 16:40 | 52.37248 | -1.65820 | 2011 ft | 156 kts | 329° |
| 2026-05-05 16:40 | 52.38154 | -1.66799 | 1894 ft | 155 kts | 328° |
| 2026-05-05 16:41 | 52.39051 | -1.67782 | 1736 ft | 155 kts | 328° |
| 2026-05-05 16:41 | 52.39938 | -1.68762 | 1519 ft | 148 kts | 328° |
| 2026-05-05 16:41 | 52.40759 | -1.69670 | 1327 ft | 139 kts | 327° |
| 2026-05-05 16:41 | 52.41551 | -1.70547 | 1128 ft | 136 kts | 327° |
| 2026-05-05 16:42 | 52.42327 | -1.71407 | 941 ft | 134 kts | 327° |
| 2026-05-05 16:42 | 52.43094 | -1.72257 | 752 ft | 132 kts | 327° |
| 2026-05-05 16:42 | 52.43850 | -1.73098 | 578 ft | 131 kts | 327° |
| 2026-05-05 16:42 | 52.44604 | -1.73934 | 377 ft | 130 kts | 327° |
| 2026-05-05 16:43 | 52.45331 | -1.74731 | 324 ft | 115 kts | 325° |
| 2026-05-05 16:43 | 52.45857 | -1.75323 | 319 ft | 71 kts | 325° |
| 2026-05-05 16:43 | 52.46109 | -1.75601 | 310 ft | 16 kts | 326° |
| 2026-05-05 16:43 | 52.46181 | -1.75556 | 311 ft | 16 kts | 66° |
| 2026-05-05 16:44 | 52.46206 | -1.75392 | 303 ft | 12 kts | 139° |
| 2026-05-05 16:44 | 52.46141 | -1.75320 | 303 ft | 10 kts | 143° |
| 2026-05-05 16:44 | 52.46089 | -1.75260 | 304 ft | 8 kts | 144° |
| 2026-05-05 16:44 | 52.46048 | -1.75211 | 304 ft | 6 kts | 144° |
| 2026-05-05 16:45 | 52.46015 | -1.75172 | 305 ft | 7 kts | 144° |
| 2026-05-05 16:45 | 52.45916 | -1.75064 | 306 ft | 26 kts | 148° |
| 2026-05-05 16:45 | 52.45729 | -1.74856 | 311 ft | 34 kts | 145° |
| 2026-05-05 16:45 | 52.45580 | -1.74690 | 321 ft | 24 kts | 146° |
| 2026-05-05 16:46 | 52.45498 | -1.74525 | 323 ft | 16 kts | 83° |
| 2026-05-05 16:46 | 52.45556 | -1.74362 | 323 ft | 17 kts | 57° |
| 2026-05-05 16:46 | 52.45627 | -1.74188 | 322 ft | 19 kts | 57° |
| 2026-05-05 16:46 | 52.45704 | -1.73997 | 323 ft | 21 kts | 57° |
| 2026-05-05 16:47 | 52.45746 | -1.73794 | 323 ft | 17 kts | 113° |
| 2026-05-05 16:47 | 52.45684 | -1.73640 | 323 ft | 15 kts | 140° |
| 2026-05-05 16:47 | 52.45600 | -1.73546 | 323 ft | 14 kts | 146° |
| 2026-05-05 16:47 | 52.45520 | -1.73486 | 322 ft | 12 kts | 159° |
| 2026-05-05 16:48 | 52.45459 | -1.73427 | 323 ft | 6 kts | 146° |
| 2026-05-05 16:48 | 52.45450 | -1.73417 | 323 ft | 0 kts | 145° |
| 2026-05-05 16:50 | 52.45451 | -1.73417 | 324 ft | 0 kts | 146° |